Avondale, CO

5:03 PM MDT on July 24, 2017 (GMT -0600)
Pueblo Memorial | | Change Station

Elev 4724 ft 38.29 °N, 104.50 °W | Updated 10 minutes ago

Clear
Clear
96 °F
Feels Like 96 °F
N
13
Wind Variable Wind from SE

Today
High -- | Low -- °F
--% Chance of Precip.
Yesterday
High -- | Low -- °F
Precip. -- in
Pressure 29.76 in
Visibility 10.0 miles
Clouds Clear
Dew Point 47 °F
Humidity 19%
Rainfall 0.00 in
Snow Depth Not available.
5:53 AM 8:13 PM
Waxing Crescent, 3% visible
METAR KPUB 242253Z AUTO 13011KT 10SM CLR 36/08 A2997 RMK AO2 SLP076 T03560083
Pressure 29.76 in
Visibility 10.0 miles
Clouds Clear
Dew Point 47 °F
Humidity 19%
Rainfall 0.00 in
Snow Depth Not available.
5:53 AM 8:13 PM
Waxing Crescent, 3% visible
METAR KPUB 242253Z AUTO 13011KT 10SM CLR 36/08 A2997 RMK AO2 SLP076 T03560083

Get Severe Weather Alerts

Thanks for signing up!

Be on the lookout for a verification email in your inbox.

You'll start receiving the daily forecast at 6 AM.

×

10-Day Weather Forecast

Almanac

Astronomy

Jul. 24, 2017 Rise Set
Actual Time
Civil Twilight
Nautical Twilight
Astronomical Twilight
Moon
Length of Visible Light
Length of Day
Tomorrow will be .
, % of the Moon is Illuminated

Today's Extremes

State Highs State Lows

Community

WunderPhotos

Category 6

Welcome to Category 6. This is the collective home for Weather Underground's featured writeups by Dr. Jeff Masters (right), Bob Henson (left), Chris Burt, and other regular contributors.

Nearby

Air Quality

  Air Quality AQ Index Pollutant
Not available.

Snow Depth

Station Depth Elevation

Earthquake Activity

City Distance Mag. Time & Date
Minimum magnitude displayed is 2.5.

Coastal Water Temperatures

Place Temperature

Stations

Nearby Weather Stations

Station Location Temp. Windchill Dew Point Humidity Wind Precip. Elev Updated Type
                   

Watches & Warnings

There are currently no watches in effect.